createdAt,value
2023-05-03T00:00:38.071Z,64.23
2023-05-03T00:03:07.479Z,64.16
2023-05-03T00:05:36.646Z,64.37
2023-05-03T00:08:05.985Z,63.92
2023-05-03T00:10:34.960Z,63.92
2023-05-03T00:13:03.963Z,64.04
2023-05-03T00:15:32.777Z,63.71
2023-05-03T00:18:01.561Z,63.77
2023-05-03T00:20:30.506Z,63.76
2023-05-03T00:22:59.504Z,63.21
2023-05-03T00:25:28.278Z,63.55
2023-05-03T00:27:58.040Z,63.52
2023-05-03T00:30:26.963Z,62.82
2023-05-03T00:32:55.934Z,62.80
2023-05-03T00:35:24.849Z,62.79
2023-05-03T00:37:53.712Z,62.85
2023-05-03T00:40:22.589Z,62.80
2023-05-03T00:42:51.430Z,63.23
2023-05-03T00:45:20.319Z,63.71
2023-05-03T00:47:49.803Z,63.22
2023-05-03T00:50:19.069Z,62.25
2023-05-03T00:52:48.279Z,62.33
2023-05-03T00:55:17.380Z,61.96
2023-05-03T00:57:46.219Z,61.86
2023-05-03T01:00:16.954Z,61.33
2023-05-03T01:02:46.152Z,61.04
2023-05-03T01:05:15.328Z,60.74
2023-05-03T01:07:56.206Z,61.11
2023-05-03T01:10:35.085Z,61.10
2023-05-03T01:13:06.894Z,61.54
2023-05-03T01:15:58.985Z,61.41
2023-05-03T01:18:33.248Z,61.78
2023-05-03T01:21:05.767Z,61.23
2023-05-03T01:23:47.317Z,59.73
2023-05-03T01:26:23.324Z,58.84
2023-05-03T01:28:52.739Z,59.11
2023-05-03T01:31:34.250Z,59.25
2023-05-03T01:34:32.261Z,59.29
2023-05-03T01:37:03.896Z,59.05
2023-05-03T01:40:05.990Z,58.87
2023-05-03T01:42:39.431Z,58.49
2023-05-03T01:45:08.963Z,57.76
2023-05-03T01:47:37.818Z,57.20
2023-05-03T01:50:06.900Z,57.19
2023-05-03T01:52:35.753Z,57.93
2023-05-03T01:55:04.804Z,57.34
2023-05-03T01:57:33.742Z,57.85
2023-05-03T02:00:03.180Z,57.44
2023-05-03T02:02:42.819Z,56.94
2023-05-03T02:05:13.764Z,56.95
2023-05-03T02:07:42.734Z,57.69
2023-05-03T02:10:15.400Z,56.15
2023-05-03T02:12:45.684Z,55.45
2023-05-03T02:15:15.285Z,55.08
2023-05-03T02:17:44.591Z,55.39
2023-05-03T02:20:13.867Z,56.10
2023-05-03T02:22:43.214Z,56.44
2023-05-03T02:25:12.218Z,56.71
2023-05-03T02:27:41.254Z,57.20
2023-05-03T02:30:10.471Z,56.85
2023-05-03T02:32:44.447Z,56.51
2023-05-03T02:35:13.411Z,56.55
2023-05-03T02:37:42.231Z,55.57
2023-05-03T02:40:13.926Z,55.75
2023-05-03T02:42:44.920Z,55.17
2023-05-03T02:45:16.597Z,54.54
2023-05-03T02:47:45.537Z,53.94
2023-05-03T02:50:16.261Z,53.76
2023-05-03T02:52:45.167Z,53.53
2023-05-03T02:55:14.237Z,53.88
2023-05-03T02:57:45.891Z,53.52
2023-05-03T03:00:19.150Z,53.73
2023-05-03T03:02:48.365Z,54.40
2023-05-03T03:05:18.472Z,54.50
2023-05-03T03:07:51.453Z,55.03
2023-05-03T03:10:20.676Z,54.20
2023-05-03T03:12:50.672Z,54.85
2023-05-03T03:15:35.213Z,55.01
2023-05-03T03:18:04.197Z,55.21
2023-05-03T03:20:33.273Z,55.48
2023-05-03T03:23:02.089Z,54.82
2023-05-03T03:25:30.897Z,54.71
2023-05-03T03:28:01.423Z,54.77
2023-05-03T03:30:31.995Z,54.66
2023-05-03T03:33:12.045Z,54.65
2023-05-03T03:35:43.342Z,54.32
2023-05-03T03:38:13.757Z,54.55
2023-05-03T03:40:51.023Z,53.63
2023-05-03T03:43:20.627Z,53.67
2023-05-03T03:45:51.035Z,52.93
2023-05-03T03:48:20.088Z,52.31
2023-05-03T03:50:50.670Z,52.64
2023-05-03T03:53:21.523Z,52.35
2023-05-03T03:55:50.358Z,51.95
2023-05-03T03:58:20.262Z,52.51
2023-05-03T04:00:50.384Z,53.23
2023-05-03T04:03:22.604Z,53.98
2023-05-03T04:05:52.267Z,54.85
2023-05-03T04:08:22.772Z,55.42
2023-05-03T04:10:52.289Z,55.52
2023-05-03T04:13:21.514Z,56.12
2023-05-03T04:15:56.760Z,56.10
2023-05-03T04:18:26.870Z,57.04
2023-05-03T04:20:58.859Z,56.81
2023-05-03T04:23:28.745Z,56.65
2023-05-03T04:25:58.665Z,57.27
2023-05-03T04:28:28.996Z,57.24
2023-05-03T04:30:59.463Z,56.97
2023-05-03T04:33:30.658Z,57.23
2023-05-03T04:36:05.170Z,58.41
2023-05-03T04:38:37.995Z,57.99
2023-05-03T04:41:08.489Z,57.55
2023-05-03T04:43:40.077Z,55.67
2023-05-03T04:46:09.068Z,55.23
2023-05-03T04:48:38.393Z,53.83
2023-05-03T04:51:07.361Z,50.06
2023-05-03T04:53:36.994Z,48.22
2023-05-03T04:56:11.513Z,49.70
2023-05-03T04:58:43.088Z,52.27
2023-05-03T05:01:14.663Z,53.35
2023-05-03T05:03:43.946Z,52.77
2023-05-03T05:06:19.764Z,52.71
2023-05-03T05:08:48.858Z,51.46
2023-05-03T05:11:18.145Z,49.67
2023-05-03T05:13:47.194Z,47.92
2023-05-03T05:16:16.445Z,48.12
2023-05-03T05:18:52.262Z,49.26
2023-05-03T05:21:23.557Z,49.90
2023-05-03T05:23:52.400Z,49.35
2023-05-03T05:26:21.546Z,48.94
2023-05-03T05:28:52.127Z,47.37
2023-05-03T05:31:21.633Z,46.11
2023-05-03T05:33:51.376Z,43.52
2023-05-03T05:36:21.220Z,42.09
2023-05-03T05:38:52.231Z,41.78
2023-05-03T05:41:21.646Z,40.57
2023-05-03T05:43:51.051Z,39.74
2023-05-03T05:46:24.058Z,40.26
2023-05-03T05:48:54.801Z,38.48
2023-05-03T05:51:24.509Z,38.11
2023-05-03T05:53:53.508Z,36.92
2023-05-03T05:56:22.692Z,37.74
2023-05-03T05:58:52.213Z,39.39
2023-05-03T06:01:21.810Z,38.41
2023-05-03T06:03:50.992Z,37.66
2023-05-03T06:06:20.144Z,36.49
2023-05-03T06:08:50.458Z,35.94
2023-05-03T06:11:19.464Z,36.49
2023-05-03T06:13:48.397Z,36.40
2023-05-03T06:16:21.092Z,37.57
2023-05-03T06:18:51.641Z,37.68
2023-05-03T06:21:20.463Z,36.87
2023-05-03T06:23:49.431Z,35.12
2023-05-03T06:26:18.760Z,35.98
2023-05-03T06:28:47.912Z,34.83
2023-05-03T06:31:17.224Z,36.00
2023-05-03T06:33:47.845Z,36.07
2023-05-03T06:36:17.739Z,35.84
2023-05-03T06:38:46.961Z,34.89
2023-05-03T06:41:16.045Z,34.29
2023-05-03T06:43:44.950Z,33.23
2023-05-03T06:46:14.365Z,33.30
2023-05-03T06:48:43.478Z,33.45
2023-05-03T06:51:12.626Z,33.35
2023-05-03T06:53:41.821Z,32.96
2023-05-03T06:56:10.618Z,32.11
2023-05-03T06:58:39.565Z,31.94
2023-05-03T07:01:09.615Z,32.26
2023-05-03T07:03:41.670Z,32.60
2023-05-03T07:06:11.272Z,32.52
2023-05-03T07:08:40.177Z,32.65
2023-05-03T07:11:09.963Z,33.61
2023-05-03T07:13:38.924Z,34.84
2023-05-03T07:16:08.554Z,35.08
2023-05-03T07:18:37.495Z,35.51
2023-05-03T07:21:09.198Z,35.85
2023-05-03T07:23:38.447Z,36.17
2023-05-03T07:26:07.908Z,36.62
2023-05-03T07:28:36.842Z,37.12
2023-05-03T07:31:06.160Z,36.99
2023-05-03T07:33:38.052Z,36.99
2023-05-03T07:36:07.310Z,36.81
2023-05-03T07:38:36.550Z,36.95
2023-05-03T07:41:05.679Z,36.84
2023-05-03T07:43:34.607Z,36.39
2023-05-03T07:46:03.974Z,36.02
2023-05-03T07:48:32.806Z,34.66
2023-05-03T07:51:05.173Z,32.22
2023-05-03T07:53:36.010Z,31.62
2023-05-03T07:56:05.111Z,31.66
2023-05-03T07:58:39.911Z,32.99
2023-05-03T08:01:11.616Z,34.11
2023-05-03T08:03:41.358Z,34.78
2023-05-03T08:06:10.544Z,35.23
2023-05-03T08:08:39.481Z,35.70
2023-05-03T08:11:08.240Z,35.73
2023-05-03T08:13:37.773Z,36.49
2023-05-03T08:16:07.234Z,36.63
2023-05-03T08:18:36.679Z,37.19
2023-05-03T08:21:06.942Z,37.39
2023-05-03T08:23:36.123Z,37.42
2023-05-03T08:26:09.110Z,37.25
2023-05-03T08:28:38.585Z,36.91
2023-05-03T08:31:08.858Z,36.71
2023-05-03T08:33:38.264Z,36.37
2023-05-03T08:36:07.591Z,36.60
2023-05-03T08:38:41.998Z,36.90
2023-05-03T08:41:30.446Z,37.26
2023-05-03T08:44:01.723Z,37.76
2023-05-03T08:46:31.210Z,37.47
2023-05-03T08:49:00.797Z,37.82
2023-05-03T08:51:29.854Z,37.95
2023-05-03T08:53:59.888Z,38.74
2023-05-03T08:56:40.555Z,39.12
2023-05-03T08:59:10.147Z,39.40
2023-05-03T09:01:43.993Z,39.78
2023-05-03T09:04:13.446Z,39.84
2023-05-03T09:06:42.648Z,39.63
2023-05-03T09:09:12.084Z,39.81
2023-05-03T09:11:41.094Z,39.79
2023-05-03T09:14:21.843Z,40.17
2023-05-03T09:16:51.102Z,40.00
2023-05-03T09:19:20.167Z,39.83
2023-05-03T09:21:49.022Z,39.85
2023-05-03T09:24:20.924Z,39.94
2023-05-03T09:26:52.560Z,40.12
2023-05-03T09:29:32.462Z,39.67
2023-05-03T09:32:09.244Z,39.73
2023-05-03T09:34:38.150Z,39.94
2023-05-03T09:37:07.363Z,40.06
2023-05-03T09:39:37.759Z,40.58
2023-05-03T09:42:17.211Z,40.76
2023-05-03T09:44:54.919Z,40.28
2023-05-03T09:47:26.053Z,40.47
2023-05-03T09:50:05.996Z,40.51
2023-05-03T09:52:35.492Z,40.43
2023-05-03T09:55:04.853Z,40.55
2023-05-03T09:57:34.355Z,40.75
2023-05-03T10:00:04.785Z,40.50
2023-05-03T10:02:43.121Z,40.46
2023-05-03T10:05:14.623Z,40.71
2023-05-03T10:07:45.775Z,40.50
2023-05-03T10:10:14.784Z,40.52
2023-05-03T10:12:46.090Z,40.64
2023-05-03T10:15:18.142Z,40.55
2023-05-03T10:17:52.505Z,40.30
2023-05-03T10:20:57.956Z,40.58
2023-05-03T10:23:26.929Z,40.23
2023-05-03T10:26:08.228Z,40.60
2023-05-03T10:28:41.018Z,40.83
2023-05-03T10:31:48.850Z,40.96
2023-05-03T10:34:25.607Z,40.85
2023-05-03T10:36:54.906Z,40.79
2023-05-03T10:39:24.156Z,41.24
2023-05-03T10:42:00.539Z,41.20
2023-05-03T10:44:36.477Z,40.96
2023-05-03T10:47:18.477Z,40.93
2023-05-03T10:49:47.550Z,41.04
2023-05-03T10:52:44.046Z,40.76
2023-05-03T10:55:15.310Z,41.31
2023-05-03T10:57:48.745Z,41.04
2023-05-03T11:00:23.648Z,41.10
2023-05-03T11:03:26.596Z,41.51
2023-05-03T11:05:55.646Z,41.44
2023-05-03T11:08:30.972Z,41.70
2023-05-03T11:11:01.757Z,41.82
2023-05-03T11:13:31.163Z,41.73
2023-05-03T11:16:00.200Z,41.97
2023-05-03T11:18:30.349Z,41.88
2023-05-03T11:20:59.547Z,41.68
2023-05-03T11:23:31.823Z,41.45
2023-05-03T11:26:00.863Z,41.59
2023-05-03T11:28:29.740Z,41.48
2023-05-03T11:30:58.676Z,41.96
2023-05-03T11:33:28.934Z,42.40
2023-05-03T11:35:58.069Z,42.49
2023-05-03T11:38:27.885Z,42.20
2023-05-03T11:40:57.043Z,42.33
2023-05-03T11:43:26.749Z,42.38
2023-05-03T11:46:00.692Z,42.46
2023-05-03T11:48:32.912Z,42.54
2023-05-03T11:51:09.147Z,43.31
2023-05-03T11:53:40.603Z,43.20
2023-05-03T11:56:14.522Z,43.06
2023-05-03T11:58:53.950Z,43.16
2023-05-03T12:01:29.651Z,42.85
2023-05-03T12:04:04.608Z,42.94
2023-05-03T12:06:36.142Z,42.88
2023-05-03T12:09:17.440Z,43.36
2023-05-03T12:11:48.110Z,43.42
2023-05-03T12:14:19.682Z,43.78
2023-05-03T12:16:56.619Z,43.56
2023-05-03T12:19:27.529Z,43.76
2023-05-03T12:22:18.176Z,43.94
2023-05-03T12:24:49.631Z,43.97
2023-05-03T12:27:19.657Z,43.96
2023-05-03T12:29:50.254Z,43.97
2023-05-03T12:32:22.946Z,44.18
2023-05-03T12:34:57.167Z,44.11
2023-05-03T12:37:27.793Z,44.78
2023-05-03T12:40:17.463Z,44.54
2023-05-03T12:42:46.668Z,45.98
2023-05-03T12:45:15.741Z,46.80
2023-05-03T12:47:45.132Z,48.75
2023-05-03T12:50:18.329Z,51.21
2023-05-03T12:52:52.313Z,52.86
2023-05-03T12:55:25.426Z,52.84
2023-05-03T12:58:22.799Z,53.14
2023-05-03T13:01:15.895Z,54.16
2023-05-03T13:03:43.418Z,54.49
2023-05-03T13:06:14.438Z,54.08
2023-05-03T13:08:50.143Z,53.57
2023-05-03T13:11:20.287Z,53.41
2023-05-03T13:13:49.435Z,53.75
2023-05-03T13:16:20.163Z,54.00
2023-05-03T13:18:49.210Z,54.05
2023-05-03T13:21:18.637Z,53.88
2023-05-03T13:23:47.980Z,53.96
2023-05-03T13:26:16.896Z,53.50
2023-05-03T13:28:45.800Z,53.75
2023-05-03T13:31:14.819Z,53.80
2023-05-03T13:33:43.685Z,53.88
2023-05-03T13:36:12.559Z,53.83
2023-05-03T13:38:42.727Z,53.98
2023-05-03T13:41:12.397Z,53.98
2023-05-03T13:43:42.862Z,53.68
2023-05-03T13:46:13.151Z,53.60
2023-05-03T13:48:42.650Z,53.97
2023-05-03T13:51:15.223Z,54.15
2023-05-03T13:53:45.084Z,54.23
2023-05-03T13:56:14.111Z,54.30
2023-05-03T13:58:42.924Z,54.46
2023-05-03T14:01:13.309Z,54.66
2023-05-03T14:03:42.628Z,54.86
2023-05-03T14:06:12.040Z,54.92
2023-05-03T14:08:41.279Z,54.77
2023-05-03T14:11:18.009Z,54.96
2023-05-03T14:13:55.426Z,54.99
2023-05-03T14:16:39.869Z,55.47
2023-05-03T14:19:11.416Z,55.57
2023-05-03T14:21:45.612Z,55.56
2023-05-03T14:24:14.636Z,55.07
2023-05-03T14:26:43.573Z,55.50
2023-05-03T14:29:12.549Z,55.59
2023-05-03T14:31:41.565Z,55.39
2023-05-03T14:34:10.373Z,55.35
2023-05-03T14:36:44.148Z,55.37
2023-05-03T14:39:15.234Z,55.96
2023-05-03T14:41:47.039Z,55.88
2023-05-03T14:44:16.057Z,55.65
2023-05-03T14:46:45.089Z,55.75
2023-05-03T14:49:18.151Z,56.02
2023-05-03T14:51:47.061Z,55.78
2023-05-03T14:54:16.577Z,56.03
2023-05-03T14:56:45.369Z,55.94
2023-05-03T14:59:16.378Z,55.95
2023-05-03T15:01:45.909Z,55.59
2023-05-03T15:04:15.461Z,55.82
2023-05-03T15:06:44.342Z,55.87
2023-05-03T15:09:13.771Z,56.17
2023-05-03T15:11:42.715Z,56.15
2023-05-03T15:14:11.557Z,56.78
2023-05-03T15:16:40.926Z,56.15
2023-05-03T15:19:09.927Z,56.49
2023-05-03T15:21:49.241Z,56.71
2023-05-03T15:24:18.955Z,56.42
2023-05-03T15:26:47.773Z,56.44
2023-05-03T15:29:16.640Z,56.93
2023-05-03T15:31:45.501Z,56.79
2023-05-03T15:34:14.638Z,56.74
2023-05-03T15:36:43.421Z,56.89
2023-05-03T15:39:13.595Z,56.67
2023-05-03T15:41:42.622Z,57.08
2023-05-03T15:44:11.394Z,56.92
2023-05-03T15:46:41.516Z,57.28
2023-05-03T15:49:13.164Z,56.88
2023-05-03T15:51:41.999Z,57.38
2023-05-03T15:54:11.051Z,57.28
2023-05-03T15:56:40.751Z,57.71
2023-05-03T15:59:10.571Z,57.66
2023-05-03T16:01:39.889Z,57.40
2023-05-03T16:04:09.815Z,57.71
2023-05-03T16:06:38.735Z,57.38
2023-05-03T16:09:08.309Z,57.24
2023-05-03T16:11:37.379Z,57.61
2023-05-03T16:14:09.839Z,58.04
2023-05-03T16:16:39.352Z,57.78
2023-05-03T16:19:09.380Z,57.47
2023-05-03T16:21:38.282Z,57.64
2023-05-03T16:24:08.018Z,57.61
2023-05-03T16:26:37.171Z,57.05
2023-05-03T16:29:06.338Z,57.85
2023-05-03T16:31:35.458Z,57.44
2023-05-03T16:34:05.040Z,57.55
2023-05-03T16:36:34.193Z,57.25
2023-05-03T16:39:02.961Z,57.51
2023-05-03T16:41:31.687Z,57.69
2023-05-03T16:44:00.596Z,57.85
2023-05-03T16:46:29.410Z,57.51
2023-05-03T16:48:58.639Z,57.46
2023-05-03T16:51:28.606Z,57.65
2023-05-03T16:53:57.609Z,57.73
2023-05-03T16:56:27.578Z,57.16
2023-05-03T16:58:57.130Z,57.48
2023-05-03T17:01:26.697Z,57.31
2023-05-03T17:03:56.343Z,57.29
2023-05-03T17:06:25.158Z,57.82
2023-05-03T17:08:54.984Z,57.52
2023-05-03T17:11:23.713Z,57.47
2023-05-03T17:13:52.619Z,57.44
2023-05-03T17:16:23.180Z,57.52
2023-05-03T17:18:52.209Z,57.62
2023-05-03T17:21:21.455Z,57.62
2023-05-03T17:23:50.394Z,57.24
2023-05-03T17:26:21.810Z,57.21
2023-05-03T17:28:50.649Z,57.43
2023-05-03T17:31:19.565Z,57.31
2023-05-03T17:33:48.370Z,57.60
2023-05-03T17:36:17.588Z,57.38
2023-05-03T17:38:46.445Z,57.79
2023-05-03T17:41:15.271Z,57.38
2023-05-03T17:43:44.282Z,57.79
2023-05-03T17:46:15.064Z,57.69
2023-05-03T17:48:44.742Z,57.51
2023-05-03T17:51:14.104Z,57.59
2023-05-03T17:53:43.638Z,57.20
2023-05-03T17:56:19.703Z,57.63
2023-05-03T17:58:49.282Z,57.97
2023-05-03T18:01:19.288Z,57.92
2023-05-03T18:03:48.421Z,57.73
2023-05-03T18:06:17.417Z,57.79
2023-05-03T18:08:46.292Z,57.62
2023-05-03T18:11:15.350Z,57.80
2023-05-03T18:13:45.511Z,57.64
2023-05-03T18:16:14.502Z,57.86
2023-05-03T18:18:43.366Z,57.46
2023-05-03T18:21:13.049Z,57.53
2023-05-03T18:23:43.128Z,57.61
2023-05-03T18:26:13.447Z,57.65
2023-05-03T18:28:43.108Z,57.72
2023-05-03T18:31:13.155Z,57.89
2023-05-03T18:33:42.135Z,57.76
2023-05-03T18:36:12.415Z,57.67
2023-05-03T18:38:42.548Z,57.34
2023-05-03T18:41:16.505Z,57.75
2023-05-03T18:43:47.870Z,57.64
2023-05-03T18:46:20.764Z,57.50
2023-05-03T18:48:50.740Z,57.51
2023-05-03T18:51:19.634Z,57.79
2023-05-03T18:53:48.494Z,57.60
2023-05-03T18:56:17.332Z,57.62
2023-05-03T18:58:48.433Z,57.77
2023-05-03T19:01:17.800Z,57.60
2023-05-03T19:03:46.747Z,57.49
2023-05-03T19:06:15.650Z,57.46
2023-05-03T19:08:45.130Z,57.69
2023-05-03T19:11:15.374Z,57.71
2023-05-03T19:13:48.030Z,57.60
2023-05-03T19:16:17.218Z,57.57
2023-05-03T19:18:46.663Z,58.19
2023-05-03T19:21:19.758Z,58.00
2023-05-03T19:23:48.598Z,58.14
2023-05-03T19:26:17.758Z,58.07
2023-05-03T19:28:47.380Z,58.28
2023-05-03T19:31:16.354Z,58.16
2023-05-03T19:33:45.125Z,58.35
2023-05-03T19:36:15.283Z,58.53
2023-05-03T19:38:44.266Z,58.24
2023-05-03T19:41:13.254Z,58.54
2023-05-03T19:43:43.129Z,59.09
2023-05-03T19:46:11.985Z,58.46
2023-05-03T19:48:40.978Z,58.67
2023-05-03T19:51:17.303Z,59.25
2023-05-03T19:53:48.570Z,58.78
2023-05-03T19:56:18.937Z,58.67
2023-05-03T19:58:48.179Z,59.12
2023-05-03T20:01:18.849Z,58.48
2023-05-03T20:03:47.980Z,59.05
2023-05-03T20:06:16.931Z,59.40
2023-05-03T20:08:45.820Z,59.43
2023-05-03T20:11:14.876Z,59.19
2023-05-03T20:13:43.811Z,59.29
2023-05-03T20:16:13.199Z,59.71
2023-05-03T20:18:43.190Z,59.07
2023-05-03T20:21:12.079Z,59.84
2023-05-03T20:23:40.896Z,59.96
2023-05-03T20:26:09.691Z,59.43
2023-05-03T20:28:38.421Z,59.23
2023-05-03T20:31:07.206Z,59.83
2023-05-03T20:33:36.003Z,60.10
2023-05-03T20:36:05.124Z,59.54
2023-05-03T20:38:34.316Z,59.78
2023-05-03T20:41:03.268Z,59.73
2023-05-03T20:43:32.102Z,60.41
2023-05-03T20:46:00.954Z,60.08
2023-05-03T20:48:29.902Z,59.96
2023-05-03T20:50:59.531Z,60.06
2023-05-03T20:53:29.775Z,60.07
2023-05-03T20:56:00.939Z,60.62
2023-05-03T20:58:29.794Z,60.44
2023-05-03T21:01:01.070Z,60.56
2023-05-03T21:03:30.500Z,60.15
2023-05-03T21:05:59.505Z,60.94
2023-05-03T21:08:28.314Z,60.15
2023-05-03T21:10:57.209Z,60.59
2023-05-03T21:13:26.073Z,60.30
2023-05-03T21:15:56.593Z,60.28
2023-05-03T21:18:25.575Z,60.94
2023-05-03T21:20:55.025Z,60.67
2023-05-03T21:23:23.834Z,60.51
2023-05-03T21:25:55.862Z,61.12
2023-05-03T21:28:25.138Z,60.54
2023-05-03T21:30:55.637Z,60.69
2023-05-03T21:33:24.671Z,61.13
2023-05-03T21:35:53.680Z,60.62
2023-05-03T21:38:22.680Z,60.70
2023-05-03T21:40:51.638Z,60.78
2023-05-03T21:43:20.409Z,60.59
2023-05-03T21:45:49.521Z,60.76
2023-05-03T21:48:18.263Z,60.94
2023-05-03T21:50:47.162Z,61.08
2023-05-03T21:53:16.082Z,61.23
2023-05-03T21:55:48.649Z,60.84
2023-05-03T21:58:17.497Z,60.80
2023-05-03T22:00:47.691Z,60.94
2023-05-03T22:03:17.360Z,61.11
2023-05-03T22:05:49.187Z,61.04
2023-05-03T22:08:19.037Z,61.26
2023-05-03T22:10:47.828Z,60.62
2023-05-03T22:13:16.689Z,60.83
2023-05-03T22:15:46.004Z,61.02
2023-05-03T22:18:15.428Z,60.91
2023-05-03T22:20:44.123Z,60.53
2023-05-03T22:23:15.117Z,60.36
2023-05-03T22:25:44.142Z,60.23
2023-05-03T22:28:13.122Z,60.63
2023-05-03T22:30:42.340Z,60.65
2023-05-03T22:33:11.657Z,60.32
2023-05-03T22:35:40.606Z,60.36
2023-05-03T22:38:09.683Z,60.31
2023-05-03T22:40:38.716Z,60.73
2023-05-03T22:43:07.709Z,60.55
2023-05-03T22:45:37.298Z,60.33
2023-05-03T22:48:06.507Z,60.08
2023-05-03T22:50:35.476Z,60.55
2023-05-03T22:53:04.456Z,60.04
2023-05-03T22:55:33.998Z,59.97
2023-05-03T22:58:03.000Z,59.91
2023-05-03T23:00:33.052Z,59.70
2023-05-03T23:03:02.140Z,59.70
2023-05-03T23:05:31.084Z,59.87
2023-05-03T23:07:59.948Z,59.71
2023-05-03T23:10:29.217Z,59.49
2023-05-03T23:12:58.138Z,59.73
2023-05-03T23:15:28.911Z,59.73
2023-05-03T23:17:58.434Z,59.81
2023-05-03T23:20:27.408Z,59.37
2023-05-03T23:22:56.392Z,59.30
2023-05-03T23:25:25.252Z,59.68
2023-05-03T23:27:55.726Z,59.09
2023-05-03T23:30:25.251Z,59.26
2023-05-03T23:32:54.899Z,59.01
2023-05-03T23:35:23.935Z,59.18
2023-05-03T23:37:52.733Z,59.23
2023-05-03T23:40:21.892Z,59.03
2023-05-03T23:42:50.946Z,58.72
2023-05-03T23:45:20.400Z,58.91
2023-05-03T23:47:49.451Z,58.88
2023-05-03T23:50:18.491Z,58.69
2023-05-03T23:52:47.420Z,58.82
2023-05-03T23:55:16.271Z,58.54
2023-05-03T23:57:45.029Z,58.53
